Tiempo atmosférico en la estación meteorológica de Barbate, Cádiz (4 m.)



Fecha
DESCASC
Temp. máxima en grados centígrados (hora)
DESCASC
Temp. mínima en grados centígrados (hora)
DESCASC
Temp. media en grados centígrados
DESCASC
Racha de viento máxima en m/sg (hora)
DESCASC
Velocidad máxima media en intervalos de 10 minutos(hora)
DESCASC
Precipitaciones diarias en mm
DESCASC
Precipitaciones de 00:00 a 06:00 en mm
DESCASC
Precipitaciones de 06:00 a 12:00 en mm
DESCASC
Precipitaciones de 12:00 a 18:00 en mm
DESCASC
Precipitaciones de 18:00 a 24:00 en mm
DESCASC
17-10-2019 22.4 (17:20) 10.7 (09:00) 16.5 9.72 (14:50) 7.78 (15:00) 0 0 0 0 0
16-10-2019 22.3 (18:30) 9.3 (08:30) 15.8 7.78 (17:00) 6.67 (17:40) 0 0 0 0 0
15-10-2019 23.7 (17:00) 12 (08:50) 17.9 8.61 (18:20) 5.83 (18:20) 0 0 0 0 0
14-10-2019 22.5 (16:20) 18.1 (23:59) 20.3 11.67 (03:20) 9.72 (03:20) 5 0 4 0 1
13-10-2019 29.5 (17:10) 18.7 (00:00) 24.1 9.17 (14:00) 7.78 (14:30) 0 0 0 0 0
12-10-2019 27.1 (14:30) 20.5 (00:00) 23.8 11.94 (12:30) 10.28 (12:40) 0 0 0 0 0
11-10-2019 27.7 (13:40) 22.1 (00:00) 24.9 18.89 (02:50) 11.67 (02:40) 0 0 0 0 0
10-10-2019 27.6 (15:30) 19.7 (00:00) 23.7 13.89 (16:10) 8.89 (06:50) 0 0 0 0 0
09-10-2019 27.7 (11:50) 18.3 (00:00) 23 7.78 (00:10) 5.56 (19:00) 0 0 0 0 0
08-10-2019 28.7 (15:20) 16.3 (00:00) 22.5 16.67 (15:30) 9.72 (16:30) 0 0 0 0 0
07-10-2019 23.8 (14:50) 13.6 (00:00) 18.7 6.67 (15:40) 5.83 (16:00) 0 0 0 0 0
06-10-2019 24.4 (16:00) 13.8 (00:00) 19.1 6.67 (13:30) 5.56 (13:30) 0 0 0 0 0
05-10-2019 25.1 (18:50) 16.2 (00:00) 20.7 8.89 (17:00) 7.5 (17:00) 0 0 0 0 0
04-10-2019 24.7 (14:50) 13.8 (00:00) 19.3 5.56 (17:30) 4.72 (17:30) 0 0 0 0 0
03-10-2019 24.4 (15:00) 15.2 (00:00) 19.8 8.33 (17:40) 6.67 (17:40) 0 0 0 0 0
02-10-2019 21.9 (12:40) 17.8 (00:00) 19.8 8.89 (13:50) 7.5 (14:50) 0 0 0 0 0
01-10-2019 26.3 (14:50) 15.7 (00:00) 21 9.72 (16:50) 7.22 (16:30) 0 0 0 0 0
30-09-2019 27.4 (19:10) 15.6 (00:00) 21.5 5.83 (22:00) 5 (22:10) 0.2 0.2 0 0 0
29-09-2019 24.7 (12:40) 17.5 (00:00) 21.1 8.89 (13:50) 7.78 (13:50) 0 0 0 0 0
28-09-2019 25.7 (16:00) 14.6 (00:00) 20.2 6.67 (17:30) 5.83 (17:20) 0 0 0 0 0
27-09-2019 25.3 (13:20) 15.7 (00:00) 20.5 6.11 (18:10) 5.28 (15:40) 0 0 0 0 0
26-09-2019 25 (18:50) 14.9 (00:00) 19.9 5.56 (15:20) 5 (15:30) 0 0 0 0 0
25-09-2019 27 (13:10) 17.2 (00:00) 22.1 8.89 (14:50) 7.5 (14:40) 0 0 0 0 0
24-09-2019 29.6 (17:50) 14.4 (00:00) 22 8.33 (15:50) 6.67 (15:40) 0 0 0 0 0
23-09-2019 29 (17:10) 15 (00:00) 22 9.44 (17:00) 6.94 (15:30) 0 0 0 0 0
22-09-2019 25 (14:50) 19.6 (00:00) 22.3 10 (09:30) 7.22 (09:10) 1.8 0 1.8 0 0
21-09-2019 26.2 (14:40) 18.4 (00:00) 22.3 6.39 (18:50) 5 (18:50) 0 0 0 0 0
20-09-2019 22.9 (19:10) 17.6 (00:00) 20.3 7.5 (08:50) 6.67 (09:00) 0 0 0 0 0

Gráficas

Temp. máximas Temp. mínimas Temp. medias Precipitaciones Rachas de viento máximas Velocidades máximas media en intervalos de 10 minutos

Datos horarios

Fecha y hora oficial Temperatura (ºC) Velocidad del viento (km/h) Dirección del viento Racha (km/h) Dirección de racha Precipitación (mm) Presión (hPa) Tendencia (hPa) Humedad (%)
2019-10-19 23:00:00 18.9 26 Oeste 41 Oeste 2.2 -- -- 100
2019-10-19 22:00:00 20.1 28 Sudoeste 35 Sudoeste 0 -- -- 98
2019-10-19 21:00:00 20 25 Sudoeste 30 Sudoeste 0 -- -- 98
2019-10-19 20:00:00 20 22 Sudoeste 30 Sudoeste 0 -- -- 98
2019-10-19 19:00:00 20.3 24 Sudoeste 34 Sudoeste 0 -- -- 95
2019-10-19 18:00:00 20.6 28 Sudoeste 39 Sudoeste 0 -- -- 94
2019-10-19 17:00:00 20.2 30 Sudoeste 37 Sudoeste 0 -- -- 98
2019-10-19 16:00:00 20.9 28 Sudoeste 34 Sudoeste 0 -- -- 94
2019-10-19 15:00:00 20.4 24 Sudoeste 34 Sudoeste 0 -- -- 97
2019-10-19 14:00:00 20.7 23 Sudoeste 31 Sudoeste 0 -- -- 93
2019-10-19 13:00:00 21.3 21 Sudoeste 27 Sudoeste 0 -- -- 92
2019-10-19 12:00:00 22.1 11 Sur 15 Sur 0 -- -- 85
2019-10-19 11:00:00 21.3 7 Sur 9 Sur 0 -- -- 91
2019-10-19 10:00:00 18.2 0 Calma 6 Norte 0 -- -- 100
2019-10-19 09:00:00 16.9 5 Norte 9 Norte 0 -- -- 100
2019-10-19 08:00:00 16.7 4 Norte 7 Norte 0 -- -- 100
2019-10-19 07:00:00 16.9 3 Sudeste 7 Norte 0 -- -- 100
2019-10-19 06:00:00 17 5 Nordeste 8 Noroeste 0 -- -- 98
2019-10-19 05:00:00 18.4 3 Noroeste 6 Oeste 0 -- -- 98
2019-10-19 04:00:00 18.9 4 Noroeste 8 Oeste 0 -- -- 98
2019-10-19 03:00:00 19.4 0 Calma -- -- 0 -- -- 98
2019-10-19 02:00:00 19.5 0 Calma -- -- 0 -- -- 97
2019-10-19 01:00:00 19.3 0 Calma 5 Este 0 -- -- 97
2019-10-19 00:00:00 18.9 4 Nordeste 13 Noroeste 0 -- -- 96
2019-10-18 23:00:00 19.5 7 Noroeste 11 Noroeste 0 -- -- 96
2019-10-18 22:00:00 19.6 4 Noroeste 8 Oeste 0 -- -- 94
2019-10-18 21:00:00 20.1 7 Noroeste 18 Noroeste 0 -- -- 92
2019-10-18 20:00:00 20.9 14 Oeste 19 Oeste 0 -- -- 87
2019-10-18 19:00:00 22.1 14 Oeste 26 Oeste 0 -- -- 83
2019-10-18 18:00:00 21.1 21 Oeste 29 Oeste 0 -- -- 91
2019-10-18 17:00:00 21.3 23 Oeste 32 Oeste 0 -- -- 91
2019-10-18 16:00:00 21.4 26 Oeste 31 Oeste 0 -- -- 89
2019-10-18 15:00:00 22.2 24 Oeste 30 Oeste 0 -- -- 83
2019-10-18 14:00:00 22.1 17 Oeste 24 Oeste 0 -- -- 85
2019-10-18 13:00:00 22.6 7 Norte 13 Sudoeste 0 -- -- 78
2019-10-18 12:00:00 21.8 10 Sudoeste 12 Sudoeste 0 -- -- 83
2019-10-18 11:00:00 18.8 3 Nordeste 10 Nordeste 0 -- -- 94
2019-10-18 10:00:00 15.9 4 Nordeste 10 Norte 0 -- -- 100
2019-10-18 09:00:00 13.9 7 Norte 10 Norte 0 -- -- 100
2019-10-18 08:00:00 13.7 7 Norte 11 Norte 0 -- -- 99
2019-10-18 07:00:00 13.8 8 Norte 10 Norte 0 -- -- 99
2019-10-18 06:00:00 14.1 6 Norte 9 Norte 0 -- -- 99
2019-10-18 05:00:00 14.2 6 Norte 10 Norte 0 -- -- 99
2019-10-18 04:00:00 14.5 6 Norte 10 Norte 0 -- -- 98
2019-10-18 03:00:00 14.8 8 Norte 10 Norte 0 -- -- 97
2019-10-18 02:00:00 15.1 6 Norte 7 Norte 0 -- -- 96
2019-10-18 01:00:00 16.3 4 Norte 6 Este 0 -- -- 94
2019-10-18 00:00:00 16.8 4 Este 6 Este 0 -- -- 92
2019-10-17 23:00:00 17.1 4 Este 8 Este 0 -- -- 90
2019-10-17 22:00:00 18.1 5 Nordeste 19 Noroeste 0 -- -- 86
2019-10-17 21:00:00 18.9 6 Noroeste 17 Norte 0 -- -- 84
2019-10-17 20:00:00 19.6 5 Oeste 22 Oeste 0 -- -- 82
2019-10-17 19:00:00 21.4 13 Noroeste 25 Oeste 0 -- -- 72
2019-10-17 18:00:00 22.4 16 Noroeste 29 Oeste 0 -- -- 67
2019-10-17 17:00:00 22.1 17 Oeste 28 Oeste 0 -- -- 70
2019-10-17 16:00:00 22.2 19 Oeste 32 Oeste 0 -- -- 68
2019-10-17 15:00:00 20.7 28 Oeste 35 Oeste 0 -- -- 81
2019-10-17 14:00:00 20.7 24 Oeste 31 Sudoeste 0 -- -- 80
2019-10-17 13:00:00 21.9 12 Sudoeste 14 Sudoeste 0 -- -- 73
2019-10-17 12:00:00 19.4 6 Nordeste 13 Nordeste 0 -- -- 78
2019-10-17 11:00:00 15.5 8 Norte 16 Norte 0 -- -- 83
2019-10-17 10:00:00 12.6 9 Norte 15 Norte 0 -- -- 91
2019-10-17 09:00:00 10.7 9 Norte 14 Norte 0 -- -- 95
2019-10-17 08:00:00 10.8 9 Norte 14 Norte 0 -- -- 95
2019-10-17 07:00:00 11.2 8 Norte 13 Nordeste 0 -- -- 95
2019-10-17 06:00:00 11.5 8 Nordeste 10 Nordeste 0 -- -- 95
2019-10-17 05:00:00 11.6 8 Norte 12 Norte 0 -- -- 93
2019-10-17 04:00:00 12.4 7 Norte 9 Norte 0 -- -- 91
2019-10-17 03:00:00 13.1 6 Norte 9 Nordeste 0 -- -- 88
2019-10-17 02:00:00 12.6 7 Nordeste 9 Norte 0 -- -- 89
2019-10-17 01:00:00 14.5 5 Norte 6 Norte 0 -- -- 83
2019-10-17 00:00:00 14.9 4 Norte 6 Norte 0 -- -- 81
2019-10-16 23:00:00 15.8 4 Norte 12 Nordeste 0 -- -- 81
2019-10-16 22:00:00 16.4 7 Nordeste 9 Nordeste 0 -- -- 75
2019-10-16 21:00:00 17.7 6 Nordeste 17 Norte 0 -- -- 70
2019-10-16 20:00:00 19.4 12 Noroeste 23 Noroeste 0 -- -- 61
2019-10-16 19:00:00 21.9 10 Noroeste 21 Oeste 0 -- -- 53
2019-10-16 18:00:00 20.5 22 Oeste 28 Oeste 0 -- -- 72
2019-10-16 17:00:00 20.4 23 Oeste 28 Sudoeste 0 -- -- 72
2019-10-16 16:00:00 20.5 20 Oeste 23 Sudoeste 0 -- -- 68
2019-10-16 15:00:00 20 18 Oeste 22 Oeste 0 -- -- 63
2019-10-16 14:00:00 20 13 Sudoeste 17 Sudoeste 0 -- -- 72
2019-10-16 13:00:00 20.6 11 Sudoeste 15 Sudoeste 0 -- -- 67
2019-10-16 12:00:00 18.3 3 Sudoeste 13 Norte 0 -- -- 75
2019-10-16 11:00:00 13.9 7 Norte 14 Norte 0 -- -- 85
2019-10-16 10:00:00 11 10 Nordeste 15 Norte 0 -- -- 94
2019-10-16 09:00:00 9.4 9 Nordeste 14 Nordeste 0 -- -- 97
2019-10-16 08:00:00 9.7 8 Norte 12 Norte 0 -- -- 95
2019-10-16 07:00:00 10.3 8 Norte 14 Nordeste 0 -- -- 94
2019-10-16 06:00:00 10.4 8 Norte 15 Norte 0 -- -- 94
2019-10-16 05:00:00 11.1 10 Norte 16 Norte 0 -- -- 92
2019-10-16 04:00:00 11.7 9 Norte 12 Norte 0 -- -- 91
2019-10-16 03:00:00 12.9 5 Norte 9 Norte 0 -- -- 86
2019-10-16 02:00:00 13.3 6 Norte 11 Norte 0 -- -- 86
2019-10-16 01:00:00 14.1 8 Nordeste 10 Este 0 -- -- 82
2019-10-16 00:00:00 14.8 5 Nordeste 9 Norte 0 -- -- 81
2019-10-15 23:00:00 16 8 Norte 18 Norte 0 -- -- 70
2019-10-15 22:00:00 16.4 9 Norte 19 Noroeste 0 -- -- 69
2019-10-15 21:00:00 17.5 13 Norte 23 Noroeste 0 -- -- 64
2019-10-15 20:00:00 18.6 14 Noroeste 27 Noroeste 0 -- -- 63
2019-10-15 19:00:00 20.2 19 Noroeste 31 Noroeste 0 -- -- 59
2019-10-15 18:00:00 22.6 18 Noroeste 27 Noroeste 0 -- -- 49
2019-10-15 17:00:00 23.7 13 Norte 26 Norte 0 -- -- 35
2019-10-15 16:00:00 23.2 10 Norte 22 Noroeste 0 -- -- 39
2019-10-15 15:00:00 22.6 9 Norte 24 Norte 0 -- -- 37
2019-10-15 14:00:00 21.2 9 Norte 19 Norte 0 -- -- 47
2019-10-15 13:00:00 20.2 12 Norte 24 Norte 0 -- -- 51
2019-10-15 12:00:00 18.8 11 Norte 19 Norte 0 -- -- 64
2019-10-15 11:00:00 16 8 Norte 16 Norte 0 -- -- 88
2019-10-15 10:00:00 13.9 8 Nordeste 12 Nordeste 0 -- -- 95
2019-10-15 09:00:00 12 6 Norte 9 Nordeste 0 -- -- 97
2019-10-15 08:00:00 13 4 Norte 12 Nordeste 0 -- -- 94
2019-10-15 07:00:00 13.1 10 Este 12 Nordeste 0 -- -- 93
2019-10-15 06:00:00 14.2 8 Nordeste 13 Nordeste 0 -- -- 89
2019-10-15 05:00:00 15.1 5 Norte 14 Nordeste 0 -- -- 89
2019-10-15 04:00:00 15.6 8 Norte 14 Noroeste 0 -- -- 86
2019-10-15 03:00:00 16.1 8 Norte 13 Norte 0 -- -- 93
2019-10-15 02:00:00 16.9 5 Norte 12 Norte 0 -- -- 92
2019-10-15 01:00:00 17.2 7 Norte 15 Noroeste 0 -- -- 94
2019-10-15 00:00:00 18.1 8 Noroeste 18 Noroeste 0 -- -- 91
2019-10-14 23:00:00 18.6 12 Noroeste 20 Oeste 0.2 -- -- 94
2019-10-14 22:00:00 19.1 20 Noroeste 32 Noroeste 0.8 -- -- 90
2019-10-14 21:00:00 19.8 12 Oeste 26 Noroeste 0 -- -- 77
2019-10-14 20:00:00 20.5 14 Oeste 26 Oeste 0 -- -- 81
2019-10-14 19:00:00 21 20 Oeste 35 Oeste 0 -- -- 77
2019-10-14 18:00:00 22.2 23 Noroeste 40 Oeste 0 -- -- 67
2019-10-14 17:00:00 22.4 22 Oeste 35 Noroeste 0 -- -- 70
2019-10-14 16:00:00 22.3 24 Oeste 41 Oeste 0 -- -- 75
2019-10-14 15:00:00 21.7 23 Oeste 33 Oeste 0 -- -- 80
2019-10-14 14:00:00 21.8 25 Oeste 33 Oeste 0 -- -- 81
2019-10-14 13:00:00 21.9 20 Oeste 28 Oeste 0 -- -- 81
2019-10-14 12:00:00 21.6 14 Oeste 22 Oeste 0 -- -- 81
2019-10-14 11:00:00 20.5 9 Oeste 19 Noroeste 0 -- -- 90
2019-10-14 10:00:00 20 10 Noroeste 17 Oeste 0 -- -- 98
2019-10-14 09:00:00 19.5 13 Oeste 40 Oeste 4 -- -- 99
2019-10-14 08:00:00 20.3 22 Sudoeste 38 Oeste 0 -- -- 96
2019-10-14 07:00:00 20.3 14 Sudoeste 24 Sudoeste 0 -- -- 98
2019-10-14 06:00:00 20.6 22 Sudoeste 38 Sudoeste 0 -- -- 97
2019-10-14 05:00:00 20.8 28 Sudoeste 33 Sudoeste 0 -- -- 97
2019-10-14 04:00:00 20.6 25 Sur 42 Sur 0 -- -- 97
2019-10-14 03:00:00 21 29 Sur 34 Sur 0 -- -- 94
2019-10-14 02:00:00 20.4 7 Sur 13 Sudoeste 0 -- -- 94
2019-10-14 01:00:00 20.7 7 Norte 23 Noroeste 0 -- -- 93
2019-10-14 00:00:00 20.5 6 Noroeste 19 Oeste 0 -- -- 94
2019-10-13 23:00:00 20.8 18 Oeste 27 Oeste 0 -- -- 97
2019-10-13 22:00:00 21.4 10 Oeste 23 Oeste 0 -- -- 92
2019-10-13 21:00:00 22.1 10 Sudoeste 27 Oeste 0 -- -- 89
2019-10-13 20:00:00 21.5 5 Oeste 24 Oeste 0 -- -- 89
2019-10-13 19:00:00 22.6 13 Oeste 26 Oeste 0 -- -- 87
2019-10-13 18:00:00 24.7 17 Oeste 26 Oeste 0 -- -- 76
2019-10-13 17:00:00 29.4 15 Este 25 Este 0 -- -- 54
2019-10-13 16:00:00 27.3 12 Oeste 24 Este 0 -- -- 68
2019-10-13 15:00:00 25.7 14 Sudeste 32 Sur 0 -- -- 75
2019-10-13 14:00:00 24.1 23 Sur 33 Sur 0 -- -- 81
2019-10-13 13:00:00 25.3 11 Sur 20 Sur 0 -- -- 78
2019-10-13 12:00:00 23.9 13 Sudoeste 15 Sudoeste 0 -- -- 82
2019-10-13 11:00:00 22.3 4 Oeste 6 Oeste 0 -- -- 87
2019-10-13 10:00:00 20.3 5 Nordeste 9 Nordeste 0 -- -- 94
2019-10-13 09:00:00 20.1 5 Sudeste 16 Sur 0 -- -- 98
2019-10-13 08:00:00 20.1 9 Sur 21 Sur 0 -- -- 98
2019-10-13 07:00:00 20.2 17 Sur 21 Sur 0 -- -- 98
2019-10-13 06:00:00 20.3 13 Sur 20 Sur 0 -- -- 98
2019-10-13 05:00:00 20.6 15 Sur 20 Sur 0 -- -- 98
2019-10-13 04:00:00 20.3 11 Sur 14 Sudeste 0 -- -- 99
2019-10-13 03:00:00 19.2 3 Este 8 Este 0 -- -- 98
2019-10-13 02:00:00 18.9 6 Nordeste 8 Nordeste 0 -- -- 97
2019-10-13 01:00:00 19.8 4 Este 13 Sudoeste 0 -- -- 96
2019-10-13 00:00:00 20.5 11 Sudoeste 18 Oeste 0 -- -- 97
2019-10-12 23:00:00 20.9 15 Oeste 25 Oeste 0 -- -- 95
2019-10-12 22:00:00 21 17 Oeste 24 Oeste 0 -- -- 93
2019-10-12 21:00:00 21.3 14 Oeste 24 Sur 0 -- -- 92
2019-10-12 20:00:00 22.2 21 Sur 27 Sur 0 -- -- 90
2019-10-12 19:00:00 23.3 23 Sur 26 Sur 0 -- -- 86
2019-10-12 18:00:00 24.1 23 Sur 28 Sur 0 -- -- 83
2019-10-12 17:00:00 24.2 25 Sur 29 Sur 0 -- -- 82
2019-10-12 16:00:00 24.7 26 Sur 31 Sur 0 -- -- 79
2019-10-12 15:00:00 26 24 Sur 30 Sur 0 -- -- 73
2019-10-12 14:00:00 26.4 26 Sudeste 42 Sur 0 -- -- 69
2019-10-12 13:00:00 24.6 32 Sur 43 Sur 0 -- -- 80
2019-10-12 12:00:00 24.1 34 Sur 41 Sudeste 0 -- -- 83
2019-10-12 11:00:00 25 10 Sur 36 Sudeste 0 -- -- 74
2019-10-12 10:00:00 23.5 16 Sudeste 36 Este 0 -- -- 77
2019-10-12 09:00:00 22.8 5 Este 24 Este 0 -- -- 77
2019-10-12 08:00:00 22.7 10 Sur 32 Este 0 -- -- 80
2019-10-12 07:00:00 22.9 16 Este 36 Este 0 -- -- 77
2019-10-12 06:00:00 22.8 12 Nordeste 37 Sudeste 0 -- -- 78
2019-10-12 05:00:00 22.8 19 Este 39 Este 0 -- -- 78
2019-10-12 04:00:00 23.3 11 Nordeste 27 Nordeste 0 -- -- 73
2019-10-12 03:00:00 23.5 9 Sudoeste 37 Sudeste 0 -- -- 72
2019-10-12 02:00:00 22.6 8 Nordeste 32 Este 0 -- -- 80
2019-10-12 01:00:00 23.1 21 Este 37 Este 0 -- -- 77
2019-10-12 00:00:00 22.5 5 Oeste 29 Este 0 -- -- 82
2019-10-11 23:00:00 22.5 19 Nordeste 32 Este 0 -- -- 82
2019-10-11 22:00:00 22.7 11 Nordeste 20 Nordeste 0 -- -- 79
2019-10-11 21:00:00 23.1 4 Norte 18 Este 0 -- -- 76
2019-10-11 20:00:00 23.9 7 Nordeste 36 Sudeste 0 -- -- 71
2019-10-11 19:00:00 24.7 10 Sudeste 34 Sudeste 0 -- -- 70
2019-10-11 18:00:00 25.4 20 Este 53 Este 0 -- -- 66
2019-10-11 17:00:00 25.7 26 Este 45 Este 0 -- -- 66
2019-10-11 16:00:00 25.8 25 Este 48 Este 0 -- -- 67
2019-10-11 15:00:00 26.4 22 Este 46 Este 0 -- -- 67
2019-10-11 14:00:00 27.5 28 Este 47 Sudeste 0 -- -- 63
2019-10-11 13:00:00 26.7 24 Sudeste 50 Este 0 -- -- 65
2019-10-11 12:00:00 25.2 29 Este 54 Este 0 -- -- 69
2019-10-11 11:00:00 24.5 19 Sudeste 34 Sudeste 0 -- -- 74
2019-10-11 10:00:00 23 21 Sudeste 43 Este 0 -- -- 78
2019-10-11 09:00:00 22.2 9 Sudeste 42 Sudeste 0 -- -- 81
2019-10-11 08:00:00 22.2 16 Sudeste 38 Sudeste 0 -- -- 81
2019-10-11 07:00:00 22.1 19 Este 39 Este 0 -- -- 80
2019-10-11 06:00:00 22.2 9 Este 49 Sudeste 0 -- -- 80
2019-10-11 05:00:00 22.2 25 Este 57 Sudeste 0 -- -- 79
2019-10-11 04:00:00 22.3 35 Sudeste 65 Este 0 -- -- 78
2019-10-11 03:00:00 22.3 41 Sudeste 68 Sudeste 0 -- -- 79
2019-10-11 02:00:00 22.4 36 Sudeste 63 Sudeste 0 -- -- 77
2019-10-11 01:00:00 22.3 32 Sudeste 57 Este 0 -- -- 77
2019-10-11 00:00:00 22.3 27 Este 48 Este 0 -- -- 77
2019-10-10 23:00:00 22.4 10 Nordeste 36 Sudeste 0 -- -- 79
2019-10-10 22:00:00 22.6 19 Este 49 Sudeste 0 -- -- 80
2019-10-10 21:00:00 22.7 14 Sudeste 44 Sudeste 0 -- -- 79
2019-10-10 20:00:00 23.5 8 Sudoeste 41 Sudeste 0 -- -- 75
2019-10-10 19:00:00 25 12 Este 39 Este 0 -- -- 71
2019-10-10 18:00:00 25.7 26 Este 48 Este 0 -- -- 67
2019-10-10 17:00:00 26.5 25 Este 50 Este 0 -- -- 63
2019-10-10 16:00:00 27 25 Este 47 Este 0 -- -- 63
2019-10-10 15:00:00 27.4 19 Este 40 Sudeste 0 -- -- 60
2019-10-10 14:00:00 27.1 24 Este 46 Este 0 -- -- 59
2019-10-10 13:00:00 26.3 24 Sudeste 50 Este 0 -- -- 64
2019-10-10 12:00:00 25.5 11 Este 42 Este 0 -- -- 67
2019-10-10 11:00:00 24.5 20 Este 43 Este 0 -- -- 71
2019-10-10 10:00:00 23 23 Este 39 Este 0 -- -- 79
2019-10-10 09:00:00 21.7 23 Este 44 Este 0 -- -- 81
2019-10-10 08:00:00 21.4 20 Este 37 Este 0 -- -- 77
2019-10-10 07:00:00 21.6 29 Este 45 Este 0 -- -- 75
2019-10-10 06:00:00 21.3 19 Este 35 Este 0 -- -- 68
2019-10-10 05:00:00 19.9 8 Norte 22 Este 0 -- -- 80
2019-10-10 04:00:00 20.5 5 Norte 20 Norte 0 -- -- 76
2019-10-10 03:00:00 20.4 11 Nordeste 21 Norte 0 -- -- 78
2019-10-10 02:00:00 19.8 13 Norte 19 Nordeste 0 -- -- 77
2019-10-10 01:00:00 19.9 8 Norte 17 Noroeste 0 -- -- 76
2019-10-10 00:00:00 20 6 Norte 12 Norte 0 -- -- 77
2019-10-09 23:00:00 20.1 5 Norte 10 Norte 0 -- -- 84
2019-10-09 22:00:00 20.8 3 Norte 9 Oeste 0 -- -- 84
2019-10-09 21:00:00 21.1 8 Oeste 20 Oeste 0 -- -- 89
2019-10-09 20:00:00 21.6 15 Oeste 23 Oeste 0 -- -- 89
2019-10-09 19:00:00 22.5 20 Oeste 25 Oeste 0 -- -- 86
2019-10-09 18:00:00 24.6 14 Oeste 17 Oeste 0 -- -- 77
2019-10-09 17:00:00 25.8 16 Sur 24 Sur 0 -- -- 76
2019-10-09 16:00:00 25.7 18 Sur 20 Sur 0 -- -- 75
2019-10-09 15:00:00 25.5 15 Sur 23 Sur 0 -- -- 76
2019-10-09 14:00:00 25.9 14 Sur 18 Sur 0 -- -- 74
2019-10-09 13:00:00 24 12 Oeste 17 Oeste 0 -- -- 77
2019-10-09 12:00:00 26.2 14 Sudoeste 18 Sudoeste 0 -- -- 63
2019-10-09 11:00:00 25.3 13 Este 23 Nordeste 0 -- -- 61
2019-10-09 10:00:00 22.7 14 Nordeste 22 Nordeste 0 -- -- 67
2019-10-09 09:00:00 18.8 9 Nordeste 18 Nordeste 0 -- -- 77
2019-10-09 08:00:00 18.5 14 Nordeste 21 Norte 0 -- -- 77
2019-10-09 07:00:00 18.6 10 Norte 19 Norte 0 -- -- 71
2019-10-09 06:00:00 19.1 13 Nordeste 27 Nordeste 0 -- -- 76
2019-10-09 05:00:00 20.3 13 Nordeste 21 Nordeste 0 -- -- 71
2019-10-09 04:00:00 20.6 17 Nordeste 23 Nordeste 0 -- -- 73
2019-10-09 03:00:00 20.8 8 Norte 25 Nordeste 0 -- -- 69
2019-10-09 02:00:00 21.3 10 Nordeste 23 Nordeste 0 -- -- 69
2019-10-09 01:00:00 21.7 17 Nordeste 28 Nordeste 0 -- -- 67
2019-10-09 00:00:00 22.4 17 Nordeste 30 Nordeste 0 -- -- 69
2019-10-08 23:00:00 22.7 18 Nordeste 37 Nordeste 0 -- -- 65
2019-10-08 22:00:00 23.1 23 Este 46 Este 0 -- -- 63
2019-10-08 21:00:00 23.6 18 Este 60 Este 0 -- -- 60
2019-10-08 20:00:00 24.7 24 Este 48 Este 0 -- -- 58
2019-10-08 19:00:00 26.2 25 Sudeste 57 Este 0 -- -- 56
2019-10-08 18:00:00 27.5 26 Este 57 Este 0 -- -- 54
2019-10-08 17:00:00 28.1 34 Este 60 Este 0 -- -- 54
2019-10-08 16:00:00 28.4 34 Este 60 Este 0 -- -- 53
2019-10-08 15:00:00 28.3 31 Este 53 Sudeste 0 -- -- 58
2019-10-08 14:00:00 28 27 Este 51 Sudeste 0 -- -- 57
2019-10-08 13:00:00 27.6 24 Este 45 Este 0 -- -- 61
2019-10-08 12:00:00 26.5 24 Este 45 Este 0 -- -- 66
2019-10-08 11:00:00 25.4 20 Este 40 Este 0 -- -- 69
2019-10-08 10:00:00 23.6 21 Nordeste 36 Este 0 -- -- 76
2019-10-08 09:00:00 21.5 14 Nordeste 30 Sudeste 0 -- -- 80
2019-10-08 08:00:00 21 8 Norte 33 Este 0 -- -- 82
2019-10-08 07:00:00 22 15 Este 38 Este 0 -- -- 73
2019-10-08 06:00:00 20.2 8 Noroeste 27 Sudeste 0 -- -- 83
2019-10-08 05:00:00 16.8 15 Norte 26 Norte 0 -- -- 99
2019-10-08 04:00:00 17.1 4 Nordeste 9 Nordeste 0 -- -- 99
2019-10-08 03:00:00 16.7 8 Nordeste 12 Nordeste 0 -- -- 98
2019-10-08 02:00:00 16.9 9 Nordeste 10 Norte 0 -- -- 100
2019-10-08 01:00:00 17.2 4 Norte 9 Norte 0 -- -- 100
2019-10-08 00:00:00 18.1 3 Este 4 Este 0 -- -- 100
2019-10-07 23:00:00 18.3 0 Calma 3 Oeste 0 -- -- 100
2019-10-07 22:00:00 18.8 0 Calma 8 Sudoeste 0 -- -- 100
2019-10-07 21:00:00 19.3 6 Sudoeste 14 Sur 0 -- -- 100
2019-10-07 20:00:00 19.9 9 Sur 15 Sur 0 -- -- 99
2019-10-07 19:00:00 20.5 13 Sur 17 Sur 0 -- -- 97
2019-10-07 18:00:00 22.2 14 Sudoeste 18 Sudoeste 0 -- -- 92
2019-10-07 17:00:00 23.2 17 Sudoeste 22 Sudoeste 0 -- -- 89
2019-10-07 16:00:00 22.9 21 Sudoeste 24 Sudoeste 0 -- -- 88
2019-10-07 15:00:00 23.4 15 Sudoeste 18 Sudoeste 0 -- -- 86
2019-10-07 14:00:00 22.8 13 Sudoeste 18 Sudoeste 0 -- -- 88
2019-10-07 13:00:00 23 12 Sudoeste 18 Sudoeste 0 -- -- 87
2019-10-07 12:00:00 22.2 8 Sur 9 Sur 0 -- -- 89
2019-10-07 11:00:00 19.1 0 Calma 10 Norte 0 -- -- 93
2019-10-07 10:00:00 16.5 6 Norte 11 Norte 0 -- -- 94
2019-10-07 09:00:00 14.2 8 Norte 10 Norte 0 -- -- 96
2019-10-07 08:00:00 13.6 5 Nordeste 9 Norte 0 -- -- 96
2019-10-07 07:00:00 13.8 7 Norte 10 Norte 0 -- -- 96
2019-10-07 06:00:00 13.9 6 Norte 10 Norte 0 -- -- 95
2019-10-07 05:00:00 14.8 5 Norte 12 Norte 0 -- -- 92
2019-10-07 04:00:00 15.2 5 Norte 11 Norte 0 -- -- 94
2019-10-07 03:00:00 15.5 7 Norte 10 Norte 0 -- -- 94
2019-10-07 02:00:00 16.3 6 Norte 8 Nordeste 0 -- -- 91
2019-10-07 01:00:00 17.6 5 Norte 10 Nordeste 0 -- -- 88
2019-10-07 00:00:00 17.9 9 Nordeste 18 Norte 0 -- -- 85
2019-10-06 23:00:00 18.8 7 Norte 11 Norte 0 -- -- 79
2019-10-06 22:00:00 19.6 4 Norte 9 Norte 0 -- -- 77
2019-10-06 21:00:00 21 0 Calma 9 Norte 0 -- -- 79
2019-10-06 20:00:00 22.7 5 Noroeste 17 Oeste 0 -- -- 69
2019-10-06 19:00:00 22.8 13 Oeste 22 Oeste 0 -- -- 80
2019-10-06 18:00:00 22.8 13 Sudoeste 21 Oeste 0 -- -- 83
2019-10-06 17:00:00 23.8 15 Sudoeste 19 Sudoeste 0 -- -- 80
2019-10-06 16:00:00 24.4 14 Sudoeste 17 Sudoeste 0 -- -- 79
2019-10-06 15:00:00 23.9 15 Sudoeste 18 Sudoeste 0 -- -- 80
2019-10-06 14:00:00 22.7 17 Sudoeste 24 Oeste 0 -- -- 84
2019-10-06 13:00:00 23.6 10 Sudoeste 15 Sudoeste 0 -- -- 83
2019-10-06 12:00:00 22 11 Sur 12 Sur 0 -- -- 96
2019-10-06 11:00:00 18.3 3 Norte 12 Norte 0 -- -- 100
2019-10-06 10:00:00 15.9 7 Norte 14 Norte 0 -- -- 100
2019-10-06 09:00:00 14.1 7 Norte 10 Norte 0 -- -- 100
2019-10-06 08:00:00 14 7 Norte 12 Norte 0 -- -- 100
2019-10-06 07:00:00 14 8 Norte 11 Norte 0 -- -- 100
2019-10-06 06:00:00 14.3 8 Norte 11 Norte 0 -- -- 98
2019-10-06 05:00:00 15.9 2 Sudeste 6 Este 0 -- -- 99
2019-10-06 04:00:00 14.8 5 Este 8 Este 0 -- -- 96
2019-10-06 03:00:00 16.8 0 Calma 5 Norte 0 -- -- 96
2019-10-06 02:00:00 16.3 4 Norte 7 Norte 0 -- -- 91
2019-10-06 01:00:00 17.7 0 Calma 4 Nordeste 0 -- -- 89
2019-10-06 00:00:00 18.2 3 Norte 7 Norte 0 -- -- 84
2019-10-05 23:00:00 18.8 4 Nordeste 8 Este 0 -- -- 79
2019-10-05 22:00:00 20.1 0 Calma 10 Noroeste 0 -- -- 75
2019-10-05 21:00:00 21 0 Calma 13 Noroeste 0 -- -- 73
2019-10-05 20:00:00 22.8 5 Norte 12 Oeste 0 -- -- 66
2019-10-05 19:00:00 24.9 6 Sudoeste 18 Noroeste 0 -- -- 69
2019-10-05 18:00:00 23.1 15 Sudoeste 30 Sudoeste 0 -- -- 82
2019-10-05 17:00:00 20.8 27 Oeste 32 Oeste 0 -- -- 91
2019-10-05 16:00:00 22.4 13 Sudoeste 20 Oeste 0 -- -- 85
2019-10-05 15:00:00 22.8 9 Sur 12 Sudoeste 0 -- -- 86
2019-10-05 14:00:00 23.6 9 Sudoeste 13 Sudoeste 0 -- -- 83
2019-10-05 13:00:00 23.6 9 Sur 12 Sudoeste 0 -- -- 83
2019-10-05 12:00:00 23.1 6 Sudoeste 10 Sudoeste 0 -- -- 87
2019-10-05 11:00:00 20.6 6 Sudoeste 10 Sur 0 -- -- 100
2019-10-05 10:00:00 18.8 0 Calma 6 Sudeste 0 -- -- 100
2019-10-05 09:00:00 17.5 0 Calma 4 Norte 0 -- -- 100
2019-10-05 08:00:00 17.3 3 Norte 6 Norte 0 -- -- 100
2019-10-05 07:00:00 17.1 4 Norte 7 Norte 0 -- -- 100
2019-10-05 06:00:00 17.2 4 Norte 6 Norte 0 -- -- 100
2019-10-05 05:00:00 16.8 0 Calma 6 Nordeste 0 -- -- 100
2019-10-05 04:00:00 16.7 4 Norte 6 Norte 0 -- -- 100
2019-10-05 03:00:00 17.1 4 Norte 6 Norte 0 -- -- 98
2019-10-05 02:00:00 18.5 0 Calma 5 Norte 0 -- -- 97
2019-10-05 01:00:00 18.7 3 Norte 6 Este 0 -- -- 96
2019-10-05 00:00:00 19.2 4 Este 5 Este 0 -- -- 91
2019-10-04 23:00:00 20.3 0 Calma 11 Noroeste 0 -- -- 88
2019-10-04 22:00:00 20.8 10 Noroeste 14 Noroeste 0 -- -- 88
2019-10-04 21:00:00 21.1 7 Noroeste 12 Norte 0 -- -- 85
2019-10-04 20:00:00 21.6 6 Oeste 14 Oeste 0 -- -- 85
2019-10-04 19:00:00 22.3 12 Oeste 20 Oeste 0 -- -- 83
2019-10-04 18:00:00 22.4 13 Sur 20 Sudoeste 0 -- -- 83
2019-10-04 17:00:00 23.4 15 Sudoeste 17 Sudoeste 0 -- -- 81
2019-10-04 16:00:00 24.4 13 Sudoeste 15 Sudoeste 0 -- -- 80
2019-10-04 15:00:00 24.5 12 Sur 14 Sudoeste 0 -- -- 81
2019-10-04 14:00:00 24 12 Sudoeste 14 Sudoeste 0 -- -- 81
2019-10-04 13:00:00 22.3 12 Sur 19 Sur 0 -- -- 89
2019-10-04 12:00:00 21.2 15 Sur 19 Sur 0 -- -- 92
2019-10-04 11:00:00 18.4 2 Este 12 Norte 0 -- -- 93
2019-10-04 10:00:00 16 8 Norte 12 Norte 0 -- -- 96
2019-10-04 09:00:00 14.5 9 Norte 12 Norte 0 -- -- 98
2019-10-04 08:00:00 14.4 8 Nordeste 12 Nordeste 0 -- -- 99
2019-10-04 07:00:00 13.9 8 Norte 12 Norte 0 -- -- 99
2019-10-04 06:00:00 14.1 8 Norte 11 Nordeste 0 -- -- 98
2019-10-04 05:00:00 14.1 7 Norte 12 Nordeste 0 -- -- 98
2019-10-04 04:00:00 14.7 8 Norte 11 Norte 0 -- -- 98
2019-10-04 03:00:00 14.6 8 Norte 13 Norte 0 -- -- 97
2019-10-04 02:00:00 15.3 7 Norte 9 Norte 0 -- -- 96
2019-10-04 01:00:00 16.1 6 Norte 9 Norte 0 -- -- 94
2019-10-04 00:00:00 16.6 6 Norte 9 Norte 0 -- -- 92
2019-10-03 23:00:00 17.9 2 Este 6 Nordeste 0 -- -- 90
2019-10-03 22:00:00 18.6 3 Nordeste 5 Nordeste 0 -- -- 86
2019-10-03 21:00:00 19.2 3 Noroeste 13 Oeste 0 -- -- 82
2019-10-03 20:00:00 20.2 13 Oeste 19 Oeste 0 -- -- 83
2019-10-03 19:00:00 21.5 13 Oeste 25 Oeste 0 -- -- 77
2019-10-03 18:00:00 21.9 21 Oeste 30 Oeste 0 -- -- 76
2019-10-03 17:00:00 22.1 19 Oeste 27 Oeste 0 -- -- 79
2019-10-03 16:00:00 22.4 17 Oeste 21 Oeste 0 -- -- 81
2019-10-03 15:00:00 24.4 11 Sudoeste 15 Sudoeste 0 -- -- 77
2019-10-03 14:00:00 24 13 Sudoeste 16 Sudoeste 0 -- -- 78
2019-10-03 13:00:00 23.5 11 Sudoeste 14 Sudoeste 0 -- -- 81
2019-10-03 12:00:00 22.5 8 Sudoeste 10 Sur 0 -- -- 84
2019-10-03 11:00:00 21 6 Sudoeste 10 Sudoeste 0 -- -- 93
2019-10-03 10:00:00 19.5 9 Sudoeste 23 Sudoeste 0 -- -- 98
2019-10-03 09:00:00 19 18 Sudoeste 24 Sudoeste 0 -- -- 100
2019-10-03 08:00:00 18.7 17 Sur 23 Sur 0 -- -- 100
2019-10-03 07:00:00 18.5 20 Sur 26 Sur 0 -- -- 100
2019-10-03 06:00:00 18 18 Sur 21 Sur 0 -- -- 100
2019-10-03 05:00:00 15.2 4 Nordeste 10 Sudeste 0 -- -- 96
2019-10-03 04:00:00 18.4 12 Sudeste 17 Sudeste 0 -- -- 97
2019-10-03 03:00:00 18.1 13 Sur 15 Sur 0 -- -- 97
2019-10-03 02:00:00 16.1 0 Calma 6 Norte 0 -- -- 95
2019-10-03 01:00:00 17 2 Este 6 Sur 0 -- -- 93
2019-10-03 00:00:00 17.8 2 Sudoeste 5 Sudeste 0 -- -- 92
2019-10-02 23:00:00 18.5 0 Calma 6 Noroeste 0 -- -- 88
2019-10-02 22:00:00 18.8 3 Sudeste 12 Oeste 0 -- -- 93
2019-10-02 21:00:00 19.2 9 Oeste 15 Oeste 0 -- -- 89
2019-10-02 20:00:00 19.4 9 Oeste 16 Oeste 0 -- -- 90
2019-10-02 19:00:00 20.6 14 Oeste 20 Oeste 0 -- -- 83
2019-10-02 18:00:00 21.5 18 Sudoeste 26 Oeste 0 -- -- 77
2019-10-02 17:00:00 21.6 21 Oeste 31 Sudoeste 0 -- -- 76
2019-10-02 16:00:00 21.5 24 Oeste 31 Oeste 0 -- -- 78
2019-10-02 15:00:00 21 25 Oeste 32 Oeste 0 -- -- 79
2019-10-02 14:00:00 20.9 25 Oeste 32 Oeste 0 -- -- 81
2019-10-02 13:00:00 21.6 19 Oeste 27 Oeste 0 -- -- 77
2019-10-02 12:00:00 20.6 23 Oeste 29 Oeste 0 -- -- 84
2019-10-02 11:00:00 20.8 12 Noroeste 21 Noroeste 0 -- -- 80
2019-10-02 10:00:00 19.3 10 Noroeste 17 Norte 0 -- -- 87
2019-10-02 09:00:00 17.9 4 Sudeste 10 Norte 0 -- -- 93
2019-10-02 08:00:00 18.2 7 Noroeste 21 Noroeste 0 -- -- 91
2019-10-02 07:00:00 18.3 9 Norte 19 Norte 0 -- -- 90
2019-10-02 06:00:00 18.9 7 Norte 17 Norte 0 -- -- 85
2019-10-02 05:00:00 19.2 7 Norte 18 Norte 0 -- -- 86
2019-10-02 04:00:00 18.8 10 Norte 15 Norte 0 -- -- 95
2019-10-02 03:00:00 19.1 8 Norte 10 Norte 0 -- -- 95
2019-10-02 02:00:00 19.7 6 Sudeste 21 Sur 0 -- -- 97
2019-10-02 01:00:00 19.7 12 Sur 15 Sudeste 0 -- -- 97
2019-10-02 00:00:00 20 12 Sur 24 Sudoeste 0 -- -- 96
2019-10-01 23:00:00 20.3 11 Sur 18 Sudeste 0 -- -- 93
2019-10-01 22:00:00 20.9 4 Este 18 Sudoeste 0 -- -- 89
2019-10-01 21:00:00 21.2 13 Sur 18 Sur 0 -- -- 87
2019-10-01 20:00:00 21.7 14 Oeste 27 Oeste 0 -- -- 84
2019-10-01 19:00:00 22.7 22 Sudoeste 25 Sudoeste 0 -- -- 82
2019-10-01 18:00:00 23.6 17 Oeste 32 Noroeste 0 -- -- 75
2019-10-01 17:00:00 24.1 24 Oeste 35 Oeste 0 -- -- 70
2019-10-01 16:00:00 25.4 22 Oeste 34 Oeste 0 -- -- 67
2019-10-01 15:00:00 26.1 20 Oeste 31 Noroeste 0 -- -- 61
2019-10-01 14:00:00 25.6 22 Noroeste 30 Oeste 0 -- -- 66
2019-10-01 13:00:00 24.6 16 Oeste 24 Oeste 0 -- -- 76
2019-10-01 12:00:00 23.1 15 Oeste 24 Oeste 0 -- -- 80
2019-10-01 11:00:00 21.7 5 Sudoeste 7 Sudoeste 0 -- -- 82
2019-10-01 10:00:00 17.7 5 Norte 8 Norte 0 -- -- 84
2019-10-01 09:00:00 16.2 5 Nordeste 7 Este 0 -- -- 84
2019-10-01 08:00:00 15.9 5 Nordeste 6 Norte 0 -- -- 80
2019-10-01 07:00:00 16.5 6 Norte 8 Norte 0 -- -- 79
2019-10-01 06:00:00 16.6 8 Norte 11 Norte 0 -- -- 69
2019-10-01 05:00:00 17.2 6 Norte 9 Norte 0 -- -- 75
2019-10-01 04:00:00 16.7 7 Nordeste 9 Norte 0 -- -- 79
2019-10-01 03:00:00 17 8 Nordeste 12 Norte 0 -- -- 76
2019-10-01 02:00:00 18.8 9 Norte 11 Norte 0 -- -- 77
2019-10-01 01:00:00 18.5 8 Nordeste 9 Nordeste 0 -- -- 74
2019-10-01 00:00:00 19.5 6 Nordeste 11 Norte 0 -- -- 74
2019-09-30 23:00:00 21.3 8 Nordeste 21 Nordeste 0 -- -- 73
2019-09-30 22:00:00 22.3 16 Nordeste 21 Nordeste 0 -- -- 64
2019-09-30 21:00:00 24.2 4 Nordeste 15 Norte 0 -- -- 64
2019-09-30 20:00:00 25.8 0 Calma 7 Norte 0 -- -- 58
2019-09-30 19:00:00 27 3 Noroeste 17 Oeste 0 -- -- 62
2019-09-30 18:00:00 25.4 13 Oeste 17 Oeste 0 -- -- 63
2019-09-30 17:00:00 24.5 9 Oeste 19 Oeste 0 -- -- 70
2019-09-30 16:00:00 23.5 10 Oeste 15 Sudoeste 0 -- -- 78
2019-09-30 15:00:00 23.7 10 Sudoeste 15 Sudoeste 0 -- -- 79
2019-09-30 14:00:00 23.3 10 Oeste 14 Sudoeste 0 -- -- 81
2019-09-30 13:00:00 22.4 8 Oeste 12 Oeste 0 -- -- 99
2019-09-30 12:00:00 19.2 5 Norte 13 Norte 0 -- -- 100
2019-09-30 11:00:00 16.9 7 Norte 15 Nordeste 0 -- -- 100
2019-09-30 10:00:00 15.6 9 Nordeste 14 Nordeste 0 -- -- 100
2019-09-30 09:00:00 15.8 8 Nordeste 12 Nordeste 0 -- -- 100
2019-09-30 08:00:00 16.2 5 Este 7 Nordeste 0 -- -- 100
2019-09-30 07:00:00 16.6 3 Este 7 Nordeste 0 -- -- 100
2019-09-30 06:00:00 16.6 3 Norte 8 Norte 0 -- -- 100
2019-09-30 05:00:00 17.1 3 Nordeste 8 Norte 0 -- -- 100
2019-09-30 04:00:00 17.8 3 Nordeste 5 Norte 0.2 -- -- 100
2019-09-30 03:00:00 18.2 0 Calma 6 Sudeste 0 -- -- 100
2019-09-30 02:00:00 18 0 Calma 5 Sudoeste 0 -- -- 100
2019-09-30 01:00:00 18.4 2 Sur 5 Sudoeste 0 -- -- 100
2019-09-30 00:00:00 18.9 2 Sur 6 Sudoeste 0 -- -- 100
2019-09-29 23:00:00 19.5 5 Sudoeste 8 Oeste 0 -- -- 100
2019-09-29 22:00:00 19.9 6 Sudoeste 13 Sudoeste 0 -- -- 100
2019-09-29 21:00:00 20.2 12 Sudoeste 17 Oeste 0 -- -- 98
2019-09-29 20:00:00 20.9 15 Oeste 22 Sudoeste 0 -- -- 95
2019-09-29 19:00:00 21.8 19 Oeste 22 Sudoeste 0 -- -- 92
2019-09-29 18:00:00 22.5 21 Oeste 25 Sudoeste 0 -- -- 88
2019-09-29 17:00:00 22.8 17 Oeste 23 Sudoeste 0 -- -- 87
2019-09-29 16:00:00 22.8 20 Sudoeste 26 Oeste 0 -- -- 86
2019-09-29 15:00:00 22.1 23 Oeste 30 Sur 0 -- -- 88
2019-09-29 14:00:00 23.4 27 Sur 32 Sur 0 -- -- 83
2019-09-29 13:00:00 24 23 Sur 27 Sur 0 -- -- 80
2019-09-29 12:00:00 23.3 9 Oeste 12 Sudoeste 0 -- -- 79
2019-09-29 11:00:00 23.1 5 Sudoeste 7 Sur 0 -- -- 79
2019-09-29 10:00:00 19.8 2 Norte 8 Nordeste 0 -- -- 90
2019-09-29 09:00:00 17.5 6 Norte 9 Norte 0 -- -- 96
2019-09-29 08:00:00 17.9 4 Nordeste 7 Norte 0 -- -- 94
2019-09-29 07:00:00 18.7 3 Sudeste 11 Oeste 0 -- -- 90
2019-09-29 06:00:00 19.5 7 Oeste 11 Oeste 0 -- -- 88
2019-09-29 05:00:00 19.6 5 Norte 15 Norte 0 -- -- 86
2019-09-29 04:00:00 19.9 11 Norte 20 Nordeste 0 -- -- 84
2019-09-29 03:00:00 20 7 Norte 18 Norte 0 -- -- 83
2019-09-29 02:00:00 19.7 6 Norte 10 Norte 0 -- -- 74
2019-09-29 01:00:00 20.2 4 Norte 19 Norte 0 -- -- 77
2019-09-29 00:00:00 21.1 12 Norte 19 Norte 0 -- -- 74
2019-09-28 23:00:00 21.5 8 Norte 12 Norte 0 -- -- 74
2019-09-28 22:00:00 22.4 6 Norte 11 Norte 0 -- -- 72
2019-09-28 21:00:00 22.7 6 Nordeste 11 Oeste 0 -- -- 85
2019-09-28 20:00:00 23.3 9 Oeste 17 Oeste 0 -- -- 84
2019-09-28 19:00:00 24.7 13 Oeste 18 Oeste 0 -- -- 79
2019-09-28 18:00:00 24.9 18 Oeste 24 Oeste 0 -- -- 74
2019-09-28 17:00:00 24.6 19 Oeste 23 Oeste 0 -- -- 78
2019-09-28 16:00:00 25.7 15 Oeste 18 Oeste 0 -- -- 71
2019-09-28 15:00:00 24.1 15 Oeste 18 Oeste 0 -- -- 79
2019-09-28 14:00:00 23.3 13 Oeste 15 Oeste 0 -- -- 84
2019-09-28 13:00:00 23 10 Sudoeste 12 Sudoeste 0 -- -- 85
2019-09-28 12:00:00 22.8 10 Sudoeste 12 Sudoeste 0 -- -- 82
2019-09-28 11:00:00 21.3 2 Sudoeste 9 Nordeste 0 -- -- 84
2019-09-28 10:00:00 17.8 6 Norte 9 Nordeste 0 -- -- 92
2019-09-28 09:00:00 14.9 8 Nordeste 10 Norte 0 -- -- 97
2019-09-28 08:00:00 14.8 8 Norte 13 Norte 0 -- -- 96
2019-09-28 07:00:00 15.9 6 Norte 10 Nordeste 0 -- -- 94
2019-09-28 06:00:00 15.6 8 Nordeste 12 Norte 0 -- -- 93
2019-09-28 05:00:00 16 7 Norte 12 Nordeste 0 -- -- 90
2019-09-28 04:00:00 16.6 7 Norte 11 Nordeste 0 -- -- 92
2019-09-28 03:00:00 16.9 5 Norte 10 Norte 0 -- -- 88
2019-09-28 02:00:00 17.6 7 Norte 10 Norte 0 -- -- 86
2019-09-28 01:00:00 17.6 7 Norte 9 Norte 0 -- -- 88
2019-09-28 00:00:00 19.6 0 Calma 4 Este 0 -- -- 88
2019-09-27 23:00:00 20.7 3 Norte 5 Norte 0 -- -- 83
2019-09-27 22:00:00 21.4 0 Calma 9 Noroeste 0 -- -- 80
2019-09-27 21:00:00 22.4 0 Calma 6 Oeste 0 -- -- 85
2019-09-27 20:00:00 24.8 5 Noroeste 14 Oeste 0 -- -- 75
2019-09-27 19:00:00 23.9 14 Oeste 22 Sudoeste 0 -- -- 84
2019-09-27 18:00:00 24.1 15 Sudoeste 20 Sudoeste 0 -- -- 84
2019-09-27 17:00:00 23.7 16 Sudoeste 21 Sudoeste 0 -- -- 85
2019-09-27 16:00:00 23.2 18 Sudoeste 21 Sudoeste 0 -- -- 87
2019-09-27 15:00:00 24.8 15 Sudoeste 17 Sudoeste 0 -- -- 81
2019-09-27 14:00:00 25.2 13 Sudoeste 17 Sudoeste 0 -- -- 80
2019-09-27 13:00:00 24.9 12 Sur 15 Sur 0 -- -- 79
2019-09-27 12:00:00 22.8 9 Oeste 12 Oeste 0 -- -- 86
2019-09-27 11:00:00 22.8 0 Calma 6 Norte 0 -- -- 85
2019-09-27 10:00:00 19.5 4 Nordeste 8 Norte 0 -- -- 94
2019-09-27 09:00:00 16.1 6 Norte 9 Norte 0 -- -- 98
2019-09-27 08:00:00 16 7 Norte 9 Norte 0 -- -- 97
2019-09-27 07:00:00 16.2 7 Norte 9 Nordeste 0 -- -- 95
2019-09-27 06:00:00 16.8 6 Norte 10 Norte 0 -- -- 93
2019-09-27 05:00:00 17.1 6 Nordeste 8 Norte 0 -- -- 91
2019-09-27 04:00:00 17.8 3 Nordeste 5 Nordeste 0 -- -- 88
2019-09-27 03:00:00 17.5 2 Sudeste 6 Norte 0 -- -- 85
2019-09-27 02:00:00 18 4 Norte 8 Norte 0 -- -- 79
2019-09-27 01:00:00 20.2 3 Norte 6 Norte 0 -- -- 75
2019-09-27 00:00:00 20.1 5 Nordeste 10 Norte 0 -- -- 76
2019-09-26 23:00:00 20.4 8 Norte 12 Norte 0 -- -- 74
2019-09-26 22:00:00 22 5 Norte 8 Norte 0 -- -- 74
2019-09-26 21:00:00 22.7 4 Norte 8 Norte 0 -- -- 73
2019-09-26 20:00:00 24 7 Oeste 19 Oeste 0 -- -- 79
2019-09-26 19:00:00 24.8 9 Oeste 15 Oeste 0 -- -- 80
2019-09-26 18:00:00 24.6 13 Oeste 19 Oeste 0 -- -- 81
2019-09-26 17:00:00 24.3 15 Oeste 20 Oeste 0 -- -- 82
2019-09-26 16:00:00 23.9 17 Oeste 20 Oeste 0 -- -- 82
2019-09-26 15:00:00 23.4 16 Oeste 18 Oeste 0 -- -- 84
2019-09-26 14:00:00 23.3 15 Oeste 18 Sudoeste 0 -- -- 85
2019-09-26 13:00:00 23.3 12 Oeste 15 Oeste 0 -- -- 85
2019-09-26 12:00:00 22.7 8 Oeste 10 Oeste 0 -- -- 86
2019-09-26 11:00:00 20.7 0 Calma 12 Norte 0 -- -- 95
2019-09-26 10:00:00 17.3 8 Norte 13 Norte 0 -- -- 98
2019-09-26 09:00:00 16.1 8 Norte 13 Norte 0 -- -- 97
2019-09-26 08:00:00 15.7 6 Norte 13 Norte 0 -- -- 95
2019-09-26 07:00:00 14.9 7 Norte 12 Norte 0 -- -- 96
2019-09-26 06:00:00 15.5 8 Norte 12 Norte 0 -- -- 96
2019-09-26 05:00:00 16.1 7 Norte 10 Norte 0 -- -- 95
2019-09-26 04:00:00 17.2 3 Nordeste 6 Norte 0 -- -- 92
2019-09-26 03:00:00 18.7 0 Calma 8 Oeste 0 -- -- 93
2019-09-26 02:00:00 19.1 6 Oeste 8 Oeste 0 -- -- 93
2019-09-26 01:00:00 19.2 5 Oeste 10 Este 0 -- -- 90
2019-09-26 00:00:00 19.3 9 Este 10 Este 0 -- -- 86
2019-09-25 23:00:00 19.8 4 Norte 11 Norte 0 -- -- 82
2019-09-25 22:00:00 20.7 3 Norte 15 Norte 0 -- -- 75
2019-09-25 21:00:00 22.2 8 Noroeste 20 Noroeste 0 -- -- 68
2019-09-25 20:00:00 24.4 8 Noroeste 14 Norte 0 -- -- 62
2019-09-25 19:00:00 25.1 11 Oeste 20 Oeste 0 -- -- 53
2019-09-25 18:00:00 24.5 14 Oeste 26 Oeste 0 -- -- 71
2019-09-25 17:00:00 25.7 16 Oeste 26 Oeste 0 -- -- 69
2019-09-25 16:00:00 23.5 24 Oeste 31 Oeste 0 -- -- 77
2019-09-25 15:00:00 23.2 27 Oeste 32 Oeste 0 -- -- 79
2019-09-25 14:00:00 24 22 Oeste 27 Oeste 0 -- -- 78
2019-09-25 13:00:00 26.4 9 Sudoeste 16 Sudoeste 0 -- -- 71
2019-09-25 12:00:00 24.1 12 Sudoeste 15 Sudoeste 0 -- -- 80
2019-09-25 11:00:00 23.7 6 Norte 13 Norte 0 -- -- 75
2019-09-25 10:00:00 21.1 5 Nordeste 9 Nordeste 0 -- -- 87
2019-09-25 09:00:00 17.9 2 Este 6 Nordeste 0 -- -- 95
2019-09-25 08:00:00 17.5 0 Calma 7 Norte 0 -- -- 93
2019-09-25 07:00:00 18.9 0 Calma -- -- 0 -- -- 95
2019-09-25 06:00:00 18.3 0 Calma -- -- 0 -- -- 91
2019-09-25 05:00:00 18.1 0 Calma 3 Noroeste 0 -- -- 91
2019-09-25 04:00:00 18.6 0 Calma 10 Oeste 0 -- -- 89
2019-09-25 03:00:00 19.8 9 Oeste 10 Oeste 0 -- -- 88
2019-09-25 02:00:00 19.6 4 Oeste 8 Norte 0 -- -- 87
2019-09-25 01:00:00 20 6 Norte 8 Norte 0 -- -- 84
2019-09-25 00:00:00 20.6 3 Norte 9 Nordeste 0 -- -- 79
2019-09-24 23:00:00 20.9 8 Nordeste 11 Nordeste 0 -- -- 73
2019-09-24 22:00:00 22.2 5 Noroeste 10 Noroeste 0 -- -- 65
2019-09-24 21:00:00 23.4 6 Nordeste 16 Norte 0 -- -- 61
2019-09-24 20:00:00 26.8 7 Norte 19 Noroeste 0 -- -- 53
2019-09-24 19:00:00 27.1 15 Sudoeste 22 Noroeste 0 -- -- 56
2019-09-24 18:00:00 29.6 11 Noroeste 21 Noroeste 0 -- -- 51
2019-09-24 17:00:00 26.2 18 Oeste 26 Oeste 0 -- -- 63
2019-09-24 16:00:00 24.2 22 Oeste 30 Oeste 0 -- -- 72
2019-09-24 15:00:00 23.8 21 Oeste 24 Oeste 0 -- -- 75
2019-09-24 14:00:00 23.4 17 Sudoeste 22 Sudoeste 0 -- -- 80
2019-09-24 13:00:00 22.8 15 Oeste 19 Oeste 0 -- -- 77
2019-09-24 12:00:00 22.8 10 Oeste 12 Sudoeste 0 -- -- 75
2019-09-24 11:00:00 21.6 2 Noroeste 11 Nordeste 0 -- -- 69
2019-09-24 10:00:00 18.1 7 Norte 12 Norte 0 -- -- 82
2019-09-24 09:00:00 14.8 8 Norte 12 Norte 0 -- -- 94
2019-09-24 08:00:00 14.4 9 Norte 12 Norte 0 -- -- 94
2019-09-24 07:00:00 14.8 6 Nordeste 12 Norte 0 -- -- 92
2019-09-24 06:00:00 15.5 9 Norte 14 Nordeste 0 -- -- 92
2019-09-24 05:00:00 15.5 9 Norte 15 Norte 0 -- -- 90
2019-09-24 04:00:00 16.6 8 Norte 16 Nordeste 0 -- -- 88
2019-09-24 03:00:00 17.2 11 Nordeste 14 Nordeste 0 -- -- 87
2019-09-24 02:00:00 17.5 8 Norte 12 Norte 0 -- -- 88
2019-09-24 01:00:00 18.4 6 Norte 10 Norte 0 -- -- 82
2019-09-24 00:00:00 18.9 5 Nordeste 10 Norte 0 -- -- 83
2019-09-23 23:00:00 20.8 6 Norte 10 Norte 0 -- -- 74
2019-09-23 22:00:00 21.9 8 Nordeste 17 Nordeste 0 -- -- 73
2019-09-23 21:00:00 23.1 4 Norte 18 Noroeste 0 -- -- 67
2019-09-23 20:00:00 25.8 4 Sudoeste 26 Noroeste 0 -- -- 62
2019-09-23 19:00:00 27.6 14 Noroeste 32 Noroeste 0 -- -- 52
2019-09-23 18:00:00 28.7 20 Noroeste 32 Noroeste 0 -- -- 51
2019-09-23 17:00:00 28.8 22 Noroeste 34 Noroeste 0 -- -- 53
2019-09-23 16:00:00 27.2 16 Noroeste 33 Oeste 0 -- -- 60
2019-09-23 15:00:00 26.3 14 Sudoeste 28 Oeste 0 -- -- 65
2019-09-23 14:00:00 24.2 14 Sudoeste 20 Sudoeste 0 -- -- 76
2019-09-23 13:00:00 23.1 15 Sudoeste 21 Sudoeste 0 -- -- 83
2019-09-23 12:00:00 23.3 6 Noroeste 12 Norte 0 -- -- 78
2019-09-23 11:00:00 18.8 5 Norte 13 Norte 0 -- -- 100
2019-09-23 10:00:00 16.8 7 Norte 13 Norte 0 -- -- 100
2019-09-23 09:00:00 15 8 Nordeste 13 Norte 0 -- -- 100
2019-09-23 08:00:00 15.1 6 Norte 12 Norte 0 -- -- 100
2019-09-23 07:00:00 15.4 7 Norte 10 Norte 0 -- -- 100
2019-09-23 06:00:00 15.9 7 Norte 9 Norte 0 -- -- 100
2019-09-23 05:00:00 16.5 5 Norte 10 Norte 0 -- -- 99
2019-09-23 04:00:00 16.8 6 Nordeste 9 Norte 0 -- -- 98
2019-09-23 03:00:00 18 5 Norte 7 Norte 0 -- -- 97
2019-09-23 02:00:00 18.5 2 Nordeste 8 Nordeste 0 -- -- 96
2019-09-23 01:00:00 19.2 3 Este 10 Sudeste 0 -- -- 94
2019-09-23 00:00:00 19.6 6 Nordeste 14 Nordeste 0 -- -- 92
2019-09-22 23:00:00 20.2 6 Nordeste 17 Norte 0 -- -- 90
2019-09-22 22:00:00 20.4 5 Este 12 Este 0 -- -- 88
2019-09-22 21:00:00 20.8 2 Sudoeste 21 Noroeste 0 -- -- 86
2019-09-22 20:00:00 21.8 13 Oeste 27 Oeste 0 -- -- 81
2019-09-22 19:00:00 22.7 19 Oeste 30 Noroeste 0 -- -- 76
2019-09-22 18:00:00 23.8 18 Noroeste 34 Noroeste 0 -- -- 70
2019-09-22 17:00:00 24.9 21 Noroeste 29 Noroeste 0 -- -- 60
2019-09-22 16:00:00 24.6 16 Noroeste 29 Noroeste 0 -- -- 58
2019-09-22 15:00:00 24.8 19 Oeste 28 Oeste 0 -- -- 54
2019-09-22 14:00:00 23.7 15 Noroeste 25 Noroeste 0 -- -- 61
2019-09-22 13:00:00 21.6 12 Oeste 17 Oeste 0 -- -- 89
2019-09-22 12:00:00 20.9 5 Sudoeste 16 Noroeste 0.2 -- -- 98
2019-09-22 11:00:00 20.3 5 Norte 22 Oeste 0.6 -- -- 100
2019-09-22 10:00:00 20.5 6 Noroeste 36 Sur 1 -- -- 99
2019-09-22 09:00:00 21 26 Sudoeste 30 Sudoeste 0 -- -- 99
2019-09-22 08:00:00 20.9 21 Sur 24 Sur 0 -- -- 99
2019-09-22 07:00:00 20.9 19 Sur 23 Sur 0 -- -- 99
2019-09-22 06:00:00 20.9 16 Sur 20 Sudoeste 0 -- -- 99
2019-09-22 05:00:00 21 13 Sur 15 Sudoeste 0 -- -- 99
2019-09-22 04:00:00 21.1 11 Sur 14 Sudoeste 0 -- -- 99
2019-09-22 03:00:00 21.1 12 Sur 17 Sur 0 -- -- 99
2019-09-22 02:00:00 21 13 Sur 15 Sur 0 -- -- 98
2019-09-22 01:00:00 20.9 5 Sur 8 Sur 0 -- -- 97
2019-09-22 00:00:00 20.8 4 Sudeste 9 Sur 0 -- -- 97
2019-09-21 23:00:00 21.1 4 Sudoeste 6 Sudeste 0 -- -- 96
2019-09-21 22:00:00 21.3 3 Sur 6 Sur 0 -- -- 95
2019-09-21 21:00:00 21.9 6 Sudoeste 15 Oeste 0 -- -- 92
2019-09-21 20:00:00 22.5 8 Noroeste 20 Noroeste 0 -- -- 83
2019-09-21 19:00:00 22.4 17 Oeste 23 Oeste 0 -- -- 86
2019-09-21 18:00:00 22.9 17 Sudoeste 21 Sudoeste 0 -- -- 87
2019-09-21 17:00:00 23.6 13 Sudoeste 18 Sudoeste 0 -- -- 83
2019-09-21 16:00:00 24.6 15 Sudoeste 18 Sudoeste 0 -- -- 79
2019-09-21 15:00:00 26 11 Sudoeste 13 Sudoeste 0 -- -- 76
2019-09-21 14:00:00 25 9 Sudoeste 10 Sudoeste 0 -- -- 80
2019-09-21 13:00:00 23.7 6 Sudoeste 8 Sudoeste 0 -- -- 83
2019-09-21 12:00:00 23.2 5 Sudoeste 8 Sudoeste 0 -- -- 84
2019-09-21 11:00:00 21.4 5 Sudoeste 7 Sudoeste 0 -- -- 90
2019-09-21 10:00:00 20.3 3 Este 5 Sudeste 0 -- -- 93
2019-09-21 09:00:00 18.8 4 Norte 9 Norte 0 -- -- 94
2019-09-21 08:00:00 18.7 5 Nordeste 7 Nordeste 0 -- -- 94
2019-09-21 07:00:00 18.8 5 Nordeste 8 Nordeste 0 -- -- 95
2019-09-21 06:00:00 19.1 6 Este 8 Nordeste 0 -- -- 95
2019-09-21 05:00:00 19.5 0 Calma 6 Oeste 0 -- -- 94
2019-09-21 04:00:00 19.7 4 Oeste 6 Oeste 0 -- -- 94
2019-09-21 03:00:00 20.4 5 Oeste 8 Oeste 0 -- -- 93
2019-09-21 02:00:00 20.7 6 Oeste 10 Oeste 0 -- -- 94
2019-09-21 01:00:00 20.7 7 Oeste 10 Oeste 0 -- -- 96
2019-09-21 00:00:00 20.7 8 Sudoeste 18 Oeste 0 -- -- 94
2019-09-20 23:00:00 20.9 16 Oeste 19 Oeste 0 -- -- 93
2019-09-20 22:00:00 21 9 Sudoeste 13 Oeste 0 -- -- 94
2019-09-20 21:00:00 21 11 Oeste 13 Oeste 0 -- -- 93
2019-09-20 20:00:00 21.9 11 Oeste 19 Oeste 0 -- -- 88
2019-09-20 19:00:00 22.6 10 Oeste 19 Sudoeste 0 -- -- 88
2019-09-20 18:00:00 22.2 15 Oeste 23 Oeste 0 -- -- 87
2019-09-20 17:00:00 21.9 20 Oeste 24 Oeste 0 -- -- 90
2019-09-20 16:00:00 22.3 16 Oeste 22 Oeste 0 -- -- 91
2019-09-20 15:00:00 22.5 19 Oeste 24 Oeste 0 -- -- 91
2019-09-20 14:00:00 21.9 18 Oeste 22 Oeste 0 -- -- 92
2019-09-20 13:00:00 22 14 Sudoeste 21 Sudoeste 0 -- -- 91
2019-09-20 12:00:00 21.9 18 Sudoeste 21 Sudoeste 0 -- -- 92
2019-09-20 11:00:00 22.5 17 Sudoeste 19 Sur 0 -- -- 88
2019-09-20 10:00:00 21.4 13 Sur 25 Sur 0 -- -- 94
2019-09-20 09:00:00 20.4 24 Sur 27 Sur 0 -- -- 97
2019-09-20 08:00:00 19.5 8 Sudeste 13 Sudeste 0 -- -- 96
2019-09-20 07:00:00 17.9 4 Norte 9 Nordeste 0 -- -- 92
2019-09-20 06:00:00 17.6 6 Nordeste 8 Nordeste 0 -- -- 93
2019-09-20 05:00:00 18.1 5 Nordeste 6 Norte 0 -- -- 91
2019-09-20 04:00:00 18.3 6 Nordeste 8 Nordeste 0 -- -- 91
2019-09-20 03:00:00 19.6 0 Calma 4 Norte 0 -- -- 86
2019-09-20 02:00:00 19.6 3 Norte 8 Nordeste 0 -- -- 85
2019-09-20 01:00:00 20.4 0 Calma 6 Nordeste 0 -- -- 80
2019-09-20 00:00:00 20.9 3 Nordeste 6 Norte 0 -- -- 78